EST,Max TemperatureF,Mean TemperatureF,Min TemperatureF,Max Dew PointF,MeanDew PointF,Min DewpointF,Max Humidity, Mean Humidity, Min Humidity, Max Sea Level PressureIn, Mean Sea Level PressureIn, Min Sea Level PressureIn, Max VisibilityMiles, Mean VisibilityMiles, Min VisibilityMiles, Max Wind SpeedMPH, Mean Wind SpeedMPH, Max Gust SpeedMPH,PrecipitationIn, CloudCover, Events, WindDirDegrees
2013-11-1,68,62,57,61,55,50,88,77,64,29.82,29.64,29.53,10,10,3,20,10,37,0.09,5,,214
2013-11-2,66,55,44,50,42,36,87,65,34,29.74,29.68,29.62,10,10,10,12,3,20,0.00,2,,285
2013-11-3,51,42,32,43,28,12,81,59,38,30.38,30.07,29.74,10,10,10,15,9,21,0.00,4,,355
2013-11-4,42,32,23,19,14,10,74,50,29,30.70,30.60,30.42,10,10,9,15,8,21,0.00,0,,19
2013-11-5,50,36,21,28,23,16,80,60,37,30.71,30.63,30.53,10,10,10,7,2,,0.00,0,,88
2013-11-6,59,47,35,46,38,30,82,69,45,30.52,30.33,30.08,10,10,10,10,3,21,0.00,2,,206
2013-11-7,64,50,37,55,47,27,94,79,65,30.07,29.84,29.71,10,9,2,16,7,24,0.32,6,,247
2013-11-8,46,36,26,30,23,18,80,56,39,30.11,29.96,29.84,10,10,10,23,9,32,0.00,2,,272
2013-11-9,44,34,24,27,21,18,80,56,36,30.22,30.15,30.05,10,10,10,14,6,23,0.00,2,,256
2013-11-10,55,48,41,39,33,27,81,64,44,30.03,29.86,29.75,10,10,7,24,5,33,0.06,5,,235
2013-11-11,51,44,37,30,25,21,60,47,33,30.12,30.01,29.90,10,10,10,25,12,33,0.00,4,,248
2013-11-12,48,36,24,36,22,10,81,60,46,30.19,30.05,29.91,10,9,2,17,9,25,0.07,4,,301
2013-11-13,35,27,19,14,10,7,68,50,35,30.28,30.23,30.18,10,10,10,16,7,22,0.00,0,,296
2013-11-14,48,36,24,19,16,10,55,41,29,30.17,30.12,30.07,10,10,10,16,7,23,0.00,0,,236
2013-11-15,60,48,35,34,20,10,81,39,21,30.22,30.18,30.14,10,10,10,10,6,20,0.00,0,,217
2013-11-16,57,46,35,37,30,25,87,58,36,30.34,30.28,30.21,10,10,10,13,4,16,0.00,2,,240
2013-11-17,57,46,35,55,45,32,94,85,67,30.31,30.18,29.87,10,5,0,9,3,,0.13,7,,140
2013-11-18,64,55,46,59,44,27,94,63,37,29.85,29.65,29.58,10,8,0,13,7,23,0.42,3,,224
2013-11-19,46,38,30,27,19,14,51,45,36,30.26,29.97,29.69,10,10,10,20,13,32,0.00,1,,304
2013-11-20,41,32,24,12,10,7,59,44,26,30.61,30.49,30.28,10,10,10,15,10,22,0.00,0,,346
2013-11-21,46,35,24,28,17,9,65,48,31,30.62,30.55,30.40,10,10,10,7,4,,0.00,1,,282
2013-11-22,48,44,39,46,40,30,93,82,65,30.38,30.10,29.84,10,8,2,7,3,,0.17,8,,229
2013-11-23,48,38,28,43,23,9,82,53,31,29.93,29.85,29.81,10,10,8,18,12,33,0.00,1,,288
2013-11-24,28,24,19,12,0,-8,55,39,26,30.20,29.96,29.82,10,10,10,26,17,40,0.00,0,,294
2013-11-25,32,24,15,18,1,-6,55,38,21,30.36,30.31,30.20,10,10,10,17,9,24,0.00,0,,263
2013-11-26,41,36,32,36,21,12,93,56,39,30.32,30.25,30.02,10,8,0,9,5,17,0.22,6,,205
2013-11-27,60,48,35,57,46,27,94,86,70,30.00,29.46,29.24,10,6,1,23,10,36,3.20,8,,203
2013-11-28,35,28,21,27,12,5,70,51,37,30.43,30.07,29.51,10,10,10,24,14,34,0.05,2,,275
2013-11-29,33,26,19,12,9,1,59,47,35,30.72,30.56,30.44,10,10,10,10,6,16,0.00,3,,304
2013-11-30,33,22,12,19,11,1,74,57,41,30.77,30.65,30.42,10,10,10,9,5,,0.00,1,,34